sensor_id;sensor_type;location;lat;lon;timestamp;temperature;humidity
76203;DHT22;64985;46.364;17.008;2023-07-31T00:00:40;15.90;99.90
76203;DHT22;64985;46.364;17.008;2023-07-31T00:03:42;15.80;99.90
76203;DHT22;64985;46.364;17.008;2023-07-31T00:06:44;15.70;99.90
76203;DHT22;64985;46.364;17.008;2023-07-31T00:09:47;15.60;99.90
76203;DHT22;64985;46.364;17.008;2023-07-31T00:12:49;15.60;99.90
76203;DHT22;64985;46.364;17.008;2023-07-31T00:15:51;15.40;99.90
76203;DHT22;64985;46.364;17.008;2023-07-31T00:18:53;15.50;99.90
76203;DHT22;64985;46.364;17.008;2023-07-31T00:21:55;15.40;99.90
76203;DHT22;64985;46.364;17.008;2023-07-31T00:24:58;15.30;99.90
76203;DHT22;64985;46.364;17.008;2023-07-31T00:28:01;15.30;99.90
76203;DHT22;64985;46.364;17.008;2023-07-31T00:31:03;15.20;99.90
76203;DHT22;64985;46.364;17.008;2023-07-31T00:34:05;15.10;99.90
76203;DHT22;64985;46.364;17.008;2023-07-31T00:37:07;15.10;99.90
76203;DHT22;64985;46.364;17.008;2023-07-31T00:40:10;15.10;99.90
76203;DHT22;64985;46.364;17.008;2023-07-31T00:43:12;15.10;99.90
76203;DHT22;64985;46.364;17.008;2023-07-31T00:46:14;15.10;99.90
76203;DHT22;64985;46.364;17.008;2023-07-31T00:49:16;15.10;99.90
76203;DHT22;64985;46.364;17.008;2023-07-31T00:52:18;15.00;99.90
76203;DHT22;64985;46.364;17.008;2023-07-31T00:55:21;14.90;99.90
76203;DHT22;64985;46.364;17.008;2023-07-31T00:58:23;14.70;99.90
76203;DHT22;64985;46.364;17.008;2023-07-31T01:01:26;14.70;99.90
76203;DHT22;64985;46.364;17.008;2023-07-31T01:04:28;14.70;99.90
76203;DHT22;64985;46.364;17.008;2023-07-31T01:10:49;14.70;99.90
76203;DHT22;64985;46.364;17.008;2023-07-31T01:13:54;14.60;99.90
76203;DHT22;64985;46.364;17.008;2023-07-31T01:16:56;14.60;99.90
76203;DHT22;64985;46.364;17.008;2023-07-31T01:20:02;14.60;99.90
76203;DHT22;64985;46.364;17.008;2023-07-31T01:26:31;14.60;99.90
76203;DHT22;64985;46.364;17.008;2023-07-31T01:33:01;14.60;99.90
76203;DHT22;64985;46.364;17.008;2023-07-31T01:36:08;14.70;99.90
76203;DHT22;64985;46.364;17.008;2023-07-31T01:39:10;14.70;99.90
76203;DHT22;64985;46.364;17.008;2023-07-31T01:42:13;14.60;99.90
76203;DHT22;64985;46.364;17.008;2023-07-31T01:45:16;14.50;99.90
76203;DHT22;64985;46.364;17.008;2023-07-31T01:48:18;14.40;99.90
76203;DHT22;64985;46.364;17.008;2023-07-31T01:51:20;14.40;99.90
76203;DHT22;64985;46.364;17.008;2023-07-31T01:54:22;14.40;99.90
76203;DHT22;64985;46.364;17.008;2023-07-31T01:57:24;14.40;99.90
76203;DHT22;64985;46.364;17.008;2023-07-31T02:00:26;14.30;99.90
76203;DHT22;64985;46.364;17.008;2023-07-31T02:03:28;14.30;99.90
76203;DHT22;64985;46.364;17.008;2023-07-31T02:06:31;14.30;99.90
76203;DHT22;64985;46.364;17.008;2023-07-31T02:09:33;14.30;99.90
76203;DHT22;64985;46.364;17.008;2023-07-31T02:12:35;14.30;99.90
76203;DHT22;64985;46.364;17.008;2023-07-31T02:15:37;14.30;99.90
76203;DHT22;64985;46.364;17.008;2023-07-31T02:18:39;14.30;99.90
76203;DHT22;64985;46.364;17.008;2023-07-31T02:21:42;14.30;99.90
76203;DHT22;64985;46.364;17.008;2023-07-31T02:24:44;14.30;99.90
76203;DHT22;64985;46.364;17.008;2023-07-31T02:27:46;14.30;99.90
76203;DHT22;64985;46.364;17.008;2023-07-31T02:30:50;14.20;99.90
76203;DHT22;64985;46.364;17.008;2023-07-31T02:33:53;14.20;99.90
76203;DHT22;64985;46.364;17.008;2023-07-31T02:36:55;14.10;99.90
76203;DHT22;64985;46.364;17.008;2023-07-31T02:39:57;14.00;99.90
76203;DHT22;64985;46.364;17.008;2023-07-31T02:42:59;14.00;99.90
76203;DHT22;64985;46.364;17.008;2023-07-31T02:46:01;14.10;99.90
76203;DHT22;64985;46.364;17.008;2023-07-31T02:49:03;14.10;99.90
76203;DHT22;64985;46.364;17.008;2023-07-31T02:52:06;14.20;99.90
76203;DHT22;64985;46.364;17.008;2023-07-31T02:55:08;14.30;99.90
76203;DHT22;64985;46.364;17.008;2023-07-31T02:58:10;14.30;99.90
76203;DHT22;64985;46.364;17.008;2023-07-31T03:01:13;14.20;99.90
76203;DHT22;64985;46.364;17.008;2023-07-31T03:04:15;14.10;99.90
76203;DHT22;64985;46.364;17.008;2023-07-31T03:07:19;14.00;99.90
76203;DHT22;64985;46.364;17.008;2023-07-31T03:10:21;14.00;99.90
76203;DHT22;64985;46.364;17.008;2023-07-31T03:13:23;14.10;99.90
76203;DHT22;64985;46.364;17.008;2023-07-31T03:16:26;14.10;99.90
76203;DHT22;64985;46.364;17.008;2023-07-31T03:19:30;14.10;99.90
76203;DHT22;64985;46.364;17.008;2023-07-31T03:22:33;14.20;99.90
76203;DHT22;64985;46.364;17.008;2023-07-31T03:25:37;14.30;99.90
76203;DHT22;64985;46.364;17.008;2023-07-31T03:28:39;14.20;99.90
76203;DHT22;64985;46.364;17.008;2023-07-31T03:31:41;14.20;99.90
76203;DHT22;64985;46.364;17.008;2023-07-31T03:34:43;14.20;99.90
76203;DHT22;64985;46.364;17.008;2023-07-31T03:37:45;14.10;99.90
76203;DHT22;64985;46.364;17.008;2023-07-31T03:40:48;14.10;99.90
76203;DHT22;64985;46.364;17.008;2023-07-31T03:43:51;14.10;99.90
76203;DHT22;64985;46.364;17.008;2023-07-31T03:46:53;14.10;99.90
76203;DHT22;64985;46.364;17.008;2023-07-31T03:49:56;14.20;99.90
76203;DHT22;64985;46.364;17.008;2023-07-31T03:52:58;14.20;99.90
76203;DHT22;64985;46.364;17.008;2023-07-31T03:56:00;14.30;99.90
76203;DHT22;64985;46.364;17.008;2023-07-31T03:59:02;14.40;99.90
76203;DHT22;64985;46.364;17.008;2023-07-31T04:02:04;14.40;99.90
76203;DHT22;64985;46.364;17.008;2023-07-31T04:05:07;14.60;99.90
76203;DHT22;64985;46.364;17.008;2023-07-31T04:08:09;14.60;99.90
76203;DHT22;64985;46.364;17.008;2023-07-31T04:11:12;14.70;99.90
76203;DHT22;64985;46.364;17.008;2023-07-31T04:14:14;14.80;99.90
76203;DHT22;64985;46.364;17.008;2023-07-31T04:17:17;14.90;99.90
76203;DHT22;64985;46.364;17.008;2023-07-31T04:20:20;15.00;99.90
76203;DHT22;64985;46.364;17.008;2023-07-31T04:23:22;15.10;99.90
76203;DHT22;64985;46.364;17.008;2023-07-31T04:26:24;15.20;99.90
76203;DHT22;64985;46.364;17.008;2023-07-31T04:29:26;15.20;99.90
76203;DHT22;64985;46.364;17.008;2023-07-31T04:32:28;15.30;99.90
76203;DHT22;64985;46.364;17.008;2023-07-31T04:35:31;15.30;99.90
76203;DHT22;64985;46.364;17.008;2023-07-31T04:38:33;15.30;99.90
76203;DHT22;64985;46.364;17.008;2023-07-31T04:41:36;15.50;99.90
76203;DHT22;64985;46.364;17.008;2023-07-31T04:44:38;15.60;99.90
76203;DHT22;64985;46.364;17.008;2023-07-31T04:47:40;15.70;99.90
76203;DHT22;64985;46.364;17.008;2023-07-31T04:50:42;15.90;99.90
76203;DHT22;64985;46.364;17.008;2023-07-31T04:53:44;15.90;99.90
76203;DHT22;64985;46.364;17.008;2023-07-31T04:56:46;16.00;99.90
76203;DHT22;64985;46.364;17.008;2023-07-31T04:59:49;16.00;99.90
76203;DHT22;64985;46.364;17.008;2023-07-31T05:02:52;16.00;99.90
76203;DHT22;64985;46.364;17.008;2023-07-31T05:05:54;16.10;99.90
76203;DHT22;64985;46.364;17.008;2023-07-31T05:08:56;16.10;99.90
76203;DHT22;64985;46.364;17.008;2023-07-31T05:11:58;16.40;99.90
76203;DHT22;64985;46.364;17.008;2023-07-31T05:15:00;16.50;99.90
76203;DHT22;64985;46.364;17.008;2023-07-31T05:18:03;16.70;99.90
76203;DHT22;64985;46.364;17.008;2023-07-31T05:21:05;16.80;99.90
76203;DHT22;64985;46.364;17.008;2023-07-31T05:24:07;16.80;99.90
76203;DHT22;64985;46.364;17.008;2023-07-31T05:27:09;16.90;99.90
76203;DHT22;64985;46.364;17.008;2023-07-31T05:30:11;17.00;99.90
76203;DHT22;64985;46.364;17.008;2023-07-31T05:33:13;16.90;99.90
76203;DHT22;64985;46.364;17.008;2023-07-31T05:36:17;17.00;99.90
76203;DHT22;64985;46.364;17.008;2023-07-31T05:39:19;17.00;99.90
76203;DHT22;64985;46.364;17.008;2023-07-31T05:42:21;17.00;99.90
76203;DHT22;64985;46.364;17.008;2023-07-31T05:45:25;17.10;99.90
76203;DHT22;64985;46.364;17.008;2023-07-31T05:48:27;17.10;99.90
76203;DHT22;64985;46.364;17.008;2023-07-31T05:51:29;17.20;99.90
76203;DHT22;64985;46.364;17.008;2023-07-31T05:54:32;17.30;99.90
76203;DHT22;64985;46.364;17.008;2023-07-31T05:57:34;17.50;99.90
76203;DHT22;64985;46.364;17.008;2023-07-31T06:00:37;17.90;99.90
76203;DHT22;64985;46.364;17.008;2023-07-31T06:03:39;18.20;99.90
76203;DHT22;64985;46.364;17.008;2023-07-31T06:06:41;18.50;99.90
76203;DHT22;64985;46.364;17.008;2023-07-31T06:09:43;19.00;99.90
76203;DHT22;64985;46.364;17.008;2023-07-31T06:12:45;19.30;99.90
76203;DHT22;64985;46.364;17.008;2023-07-31T06:15:47;19.70;99.90
76203;DHT22;64985;46.364;17.008;2023-07-31T06:18:49;20.10;99.90
76203;DHT22;64985;46.364;17.008;2023-07-31T06:21:52;20.40;99.90
76203;DHT22;64985;46.364;17.008;2023-07-31T06:24:54;20.60;99.90
76203;DHT22;64985;46.364;17.008;2023-07-31T06:27:56;21.00;99.90
76203;DHT22;64985;46.364;17.008;2023-07-31T06:30:59;21.20;99.90
76203;DHT22;64985;46.364;17.008;2023-07-31T06:34:01;21.40;99.90
76203;DHT22;64985;46.364;17.008;2023-07-31T06:37:03;21.60;99.90
76203;DHT22;64985;46.364;17.008;2023-07-31T06:40:06;21.80;99.90
76203;DHT22;64985;46.364;17.008;2023-07-31T06:43:10;22.20;99.90
76203;DHT22;64985;46.364;17.008;2023-07-31T06:46:13;22.40;99.90
76203;DHT22;64985;46.364;17.008;2023-07-31T06:49:15;22.70;94.80
76203;DHT22;64985;46.364;17.008;2023-07-31T06:52:18;22.90;90.30
76203;DHT22;64985;46.364;17.008;2023-07-31T06:55:21;23.10;91.50
76203;DHT22;64985;46.364;17.008;2023-07-31T06:58:24;23.20;91.40
76203;DHT22;64985;46.364;17.008;2023-07-31T07:01:26;23.30;91.10
76203;DHT22;64985;46.364;17.008;2023-07-31T07:04:29;23.40;92.00
76203;DHT22;64985;46.364;17.008;2023-07-31T07:07:32;23.70;87.40
76203;DHT22;64985;46.364;17.008;2023-07-31T07:10:34;24.00;83.80
76203;DHT22;64985;46.364;17.008;2023-07-31T07:13:36;24.20;82.80
76203;DHT22;64985;46.364;17.008;2023-07-31T07:16:40;24.30;82.00
76203;DHT22;64985;46.364;17.008;2023-07-31T07:19:43;24.50;78.30
76203;DHT22;64985;46.364;17.008;2023-07-31T07:22:45;24.40;81.60
76203;DHT22;64985;46.364;17.008;2023-07-31T07:25:47;24.50;75.90
76203;DHT22;64985;46.364;17.008;2023-07-31T07:28:49;24.90;79.60
76203;DHT22;64985;46.364;17.008;2023-07-31T07:31:52;24.90;76.80
76203;DHT22;64985;46.364;17.008;2023-07-31T07:34:55;25.30;73.80
76203;DHT22;64985;46.364;17.008;2023-07-31T07:37:58;25.50;74.90
76203;DHT22;64985;46.364;17.008;2023-07-31T07:41:00;25.70;72.80
76203;DHT22;64985;46.364;17.008;2023-07-31T07:44:02;25.80;72.10
76203;DHT22;64985;46.364;17.008;2023-07-31T07:47:04;25.60;70.90
76203;DHT22;64985;46.364;17.008;2023-07-31T07:50:10;26.00;70.80
76203;DHT22;64985;46.364;17.008;2023-07-31T07:53:12;25.70;71.80
76203;DHT22;64985;46.364;17.008;2023-07-31T07:56:14;25.90;70.40
76203;DHT22;64985;46.364;17.008;2023-07-31T07:59:16;25.60;74.30
76203;DHT22;64985;46.364;17.008;2023-07-31T08:02:18;25.90;69.40
76203;DHT22;64985;46.364;17.008;2023-07-31T08:05:20;26.60;71.50
76203;DHT22;64985;46.364;17.008;2023-07-31T08:08:23;26.90;67.70
76203;DHT22;64985;46.364;17.008;2023-07-31T08:11:25;27.10;63.60
76203;DHT22;64985;46.364;17.008;2023-07-31T08:14:27;27.00;63.40
76203;DHT22;64985;46.364;17.008;2023-07-31T08:17:32;26.60;63.00
76203;DHT22;64985;46.364;17.008;2023-07-31T08:20:34;26.70;64.40
76203;DHT22;64985;46.364;17.008;2023-07-31T08:23:37;26.80;65.80
76203;DHT22;64985;46.364;17.008;2023-07-31T08:26:39;26.80;64.60
76203;DHT22;64985;46.364;17.008;2023-07-31T08:29:41;26.60;63.30
76203;DHT22;64985;46.364;17.008;2023-07-31T08:32:43;27.00;63.00
76203;DHT22;64985;46.364;17.008;2023-07-31T08:35:46;27.40;65.80
76203;DHT22;64985;46.364;17.008;2023-07-31T08:38:48;27.40;64.10
76203;DHT22;64985;46.364;17.008;2023-07-31T08:41:58;27.50;60.40
76203;DHT22;64985;46.364;17.008;2023-07-31T08:45:01;27.60;60.40
76203;DHT22;64985;46.364;17.008;2023-07-31T08:48:05;27.90;64.50
76203;DHT22;64985;46.364;17.008;2023-07-31T08:51:08;28.10;57.90
76203;DHT22;64985;46.364;17.008;2023-07-31T08:54:11;28.10;59.30
76203;DHT22;64985;46.364;17.008;2023-07-31T08:57:14;28.20;62.00
76203;DHT22;64985;46.364;17.008;2023-07-31T09:00:16;28.30;56.80
76203;DHT22;64985;46.364;17.008;2023-07-31T09:03:19;28.40;59.30
76203;DHT22;64985;46.364;17.008;2023-07-31T09:06:24;28.40;60.00
76203;DHT22;64985;46.364;17.008;2023-07-31T09:09:27;28.90;62.50
76203;DHT22;64985;46.364;17.008;2023-07-31T09:12:30;28.90;56.60
76203;DHT22;64985;46.364;17.008;2023-07-31T09:15:33;28.80;58.00
76203;DHT22;64985;46.364;17.008;2023-07-31T09:18:53;28.80;58.90
76203;DHT22;64985;46.364;17.008;2023-07-31T09:21:57;29.20;53.10
76203;DHT22;64985;46.364;17.008;2023-07-31T09:25:24;29.30;56.70
76203;DHT22;64985;46.364;17.008;2023-07-31T09:28:31;29.30;61.40
76203;DHT22;64985;46.364;17.008;2023-07-31T09:31:41;29.70;52.80
76203;DHT22;64985;46.364;17.008;2023-07-31T09:34:44;29.60;57.40
76203;DHT22;64985;46.364;17.008;2023-07-31T09:37:52;29.00;59.00
76203;DHT22;64985;46.364;17.008;2023-07-31T09:40:55;28.80;58.70
76203;DHT22;64985;46.364;17.008;2023-07-31T09:44:00;29.20;59.00
76203;DHT22;64985;46.364;17.008;2023-07-31T09:47:02;29.20;55.80
76203;DHT22;64985;46.364;17.008;2023-07-31T09:50:07;29.00;54.70
76203;DHT22;64985;46.364;17.008;2023-07-31T09:53:10;28.70;56.70
76203;DHT22;64985;46.364;17.008;2023-07-31T09:56:13;28.90;56.40
76203;DHT22;64985;46.364;17.008;2023-07-31T09:59:19;29.20;58.50
76203;DHT22;64985;46.364;17.008;2023-07-31T10:02:26;29.30;52.00
76203;DHT22;64985;46.364;17.008;2023-07-31T10:05:40;29.20;56.60
76203;DHT22;64985;46.364;17.008;2023-07-31T10:08:46;29.00;55.00
76203;DHT22;64985;46.364;17.008;2023-07-31T10:12:00;29.30;56.70
76203;DHT22;64985;46.364;17.008;2023-07-31T10:15:03;29.80;53.20
76203;DHT22;64985;46.364;17.008;2023-07-31T10:18:06;29.80;59.50
76203;DHT22;64985;46.364;17.008;2023-07-31T10:21:09;29.90;52.30
76203;DHT22;64985;46.364;17.008;2023-07-31T10:24:12;29.50;52.90
76203;DHT22;64985;46.364;17.008;2023-07-31T10:27:15;29.70;54.30
76203;DHT22;64985;46.364;17.008;2023-07-31T10:30:20;29.40;53.00
76203;DHT22;64985;46.364;17.008;2023-07-31T10:33:23;29.00;51.80
76203;DHT22;64985;46.364;17.008;2023-07-31T10:36:25;28.20;53.50
76203;DHT22;64985;46.364;17.008;2023-07-31T10:39:37;28.40;52.50
76203;DHT22;64985;46.364;17.008;2023-07-31T10:42:51;29.20;55.00
76203;DHT22;64985;46.364;17.008;2023-07-31T10:45:54;30.10;51.30
76203;DHT22;64985;46.364;17.008;2023-07-31T10:49:01;29.50;51.70
76203;DHT22;64985;46.364;17.008;2023-07-31T10:52:03;28.90;55.70
76203;DHT22;64985;46.364;17.008;2023-07-31T10:55:24;28.50;54.50
76203;DHT22;64985;46.364;17.008;2023-07-31T10:58:26;28.20;57.60
76203;DHT22;64985;46.364;17.008;2023-07-31T11:01:51;28.30;59.20
76203;DHT22;64985;46.364;17.008;2023-07-31T11:05:09;28.10;63.50
76203;DHT22;64985;46.364;17.008;2023-07-31T11:11:16;27.80;62.00
76203;DHT22;64985;46.364;17.008;2023-07-31T11:14:19;27.70;59.50
76203;DHT22;64985;46.364;17.008;2023-07-31T11:17:25;27.70;65.40
76203;DHT22;64985;46.364;17.008;2023-07-31T11:20:29;27.90;63.60
76203;DHT22;64985;46.364;17.008;2023-07-31T11:23:33;28.00;62.70
76203;DHT22;64985;46.364;17.008;2023-07-31T11:26:35;28.20;58.40
76203;DHT22;64985;46.364;17.008;2023-07-31T11:29:37;29.20;52.20
76203;DHT22;64985;46.364;17.008;2023-07-31T11:32:40;30.00;52.70
76203;DHT22;64985;46.364;17.008;2023-07-31T11:35:45;29.80;56.00
76203;DHT22;64985;46.364;17.008;2023-07-31T11:38:47;29.60;57.00
76203;DHT22;64985;46.364;17.008;2023-07-31T11:41:50;29.70;52.50
76203;DHT22;64985;46.364;17.008;2023-07-31T11:44:52;29.70;52.00
76203;DHT22;64985;46.364;17.008;2023-07-31T11:47:55;30.10;55.20
76203;DHT22;64985;46.364;17.008;2023-07-31T11:50:59;30.90;55.10
76203;DHT22;64985;46.364;17.008;2023-07-31T11:54:02;30.30;50.00
76203;DHT22;64985;46.364;17.008;2023-07-31T11:57:05;29.90;53.30
76203;DHT22;64985;46.364;17.008;2023-07-31T12:00:09;29.40;53.60
76203;DHT22;64985;46.364;17.008;2023-07-31T12:03:13;29.30;55.40
76203;DHT22;64985;46.364;17.008;2023-07-31T12:06:15;29.20;50.80
76203;DHT22;64985;46.364;17.008;2023-07-31T12:09:17;29.10;57.40
76203;DHT22;64985;46.364;17.008;2023-07-31T12:12:24;29.70;55.40
76203;DHT22;64985;46.364;17.008;2023-07-31T12:15:34;30.10;55.70
76203;DHT22;64985;46.364;17.008;2023-07-31T12:18:38;30.40;54.30
76203;DHT22;64985;46.364;17.008;2023-07-31T12:21:40;31.40;56.50
76203;DHT22;64985;46.364;17.008;2023-07-31T12:24:43;30.70;53.00
76203;DHT22;64985;46.364;17.008;2023-07-31T12:27:46;30.40;51.40
76203;DHT22;64985;46.364;17.008;2023-07-31T12:30:48;29.90;54.60
76203;DHT22;64985;46.364;17.008;2023-07-31T12:33:51;29.50;56.10
76203;DHT22;64985;46.364;17.008;2023-07-31T12:36:54;29.80;52.60
76203;DHT22;64985;46.364;17.008;2023-07-31T12:39:56;30.20;53.60
76203;DHT22;64985;46.364;17.008;2023-07-31T12:43:03;30.10;55.30
76203;DHT22;64985;46.364;17.008;2023-07-31T12:46:08;30.10;50.10
76203;DHT22;64985;46.364;17.008;2023-07-31T12:49:10;29.90;51.20
76203;DHT22;64985;46.364;17.008;2023-07-31T12:52:13;30.20;53.40
76203;DHT22;64985;46.364;17.008;2023-07-31T12:55:15;30.20;54.20
76203;DHT22;64985;46.364;17.008;2023-07-31T12:58:18;29.30;52.60
76203;DHT22;64985;46.364;17.008;2023-07-31T13:01:20;29.20;53.70
76203;DHT22;64985;46.364;17.008;2023-07-31T13:04:22;29.00;54.30
76203;DHT22;64985;46.364;17.008;2023-07-31T13:07:24;28.80;59.20
76203;DHT22;64985;46.364;17.008;2023-07-31T13:10:27;28.60;54.90
76203;DHT22;64985;46.364;17.008;2023-07-31T13:13:30;28.20;57.70
76203;DHT22;64985;46.364;17.008;2023-07-31T13:16:34;28.10;55.80
76203;DHT22;64985;46.364;17.008;2023-07-31T13:19:36;28.20;57.20
76203;DHT22;64985;46.364;17.008;2023-07-31T13:22:38;28.90;57.50
76203;DHT22;64985;46.364;17.008;2023-07-31T13:25:40;29.80;53.60
76203;DHT22;64985;46.364;17.008;2023-07-31T13:28:43;30.00;54.30
76203;DHT22;64985;46.364;17.008;2023-07-31T13:31:45;29.10;56.40
76203;DHT22;64985;46.364;17.008;2023-07-31T13:34:48;28.50;55.00
76203;DHT22;64985;46.364;17.008;2023-07-31T13:37:50;28.30;55.90
76203;DHT22;64985;46.364;17.008;2023-07-31T13:40:52;28.80;54.60
76203;DHT22;64985;46.364;17.008;2023-07-31T13:43:54;29.30;53.90
76203;DHT22;64985;46.364;17.008;2023-07-31T13:46:56;28.50;56.90
76203;DHT22;64985;46.364;17.008;2023-07-31T13:49:58;27.80;57.40
76203;DHT22;64985;46.364;17.008;2023-07-31T13:53:00;27.80;55.70
76203;DHT22;64985;46.364;17.008;2023-07-31T13:56:03;28.20;62.00
76203;DHT22;64985;46.364;17.008;2023-07-31T13:59:05;27.90;60.80
76203;DHT22;64985;46.364;17.008;2023-07-31T14:02:07;27.30;62.30
76203;DHT22;64985;46.364;17.008;2023-07-31T14:05:09;26.90;61.20
76203;DHT22;64985;46.364;17.008;2023-07-31T14:08:11;27.10;59.60
76203;DHT22;64985;46.364;17.008;2023-07-31T14:11:13;27.20;63.40
76203;DHT22;64985;46.364;17.008;2023-07-31T14:14:16;27.30;62.60
76203;DHT22;64985;46.364;17.008;2023-07-31T14:17:19;27.30;62.80
76203;DHT22;64985;46.364;17.008;2023-07-31T14:20:22;27.20;62.50
76203;DHT22;64985;46.364;17.008;2023-07-31T14:23:24;26.60;63.00
76203;DHT22;64985;46.364;17.008;2023-07-31T14:26:26;26.70;64.60
76203;DHT22;64985;46.364;17.008;2023-07-31T14:29:29;27.30;58.90
76203;DHT22;64985;46.364;17.008;2023-07-31T14:32:31;27.80;61.50
76203;DHT22;64985;46.364;17.008;2023-07-31T14:35:34;28.20;56.60
76203;DHT22;64985;46.364;17.008;2023-07-31T14:38:36;28.80;56.60
76203;DHT22;64985;46.364;17.008;2023-07-31T14:41:38;28.80;60.40
76203;DHT22;64985;46.364;17.008;2023-07-31T14:44:41;28.70;58.80
76203;DHT22;64985;46.364;17.008;2023-07-31T14:47:43;28.90;55.90
76203;DHT22;64985;46.364;17.008;2023-07-31T14:50:45;28.80;55.30
76203;DHT22;64985;46.364;17.008;2023-07-31T14:53:47;29.40;56.20
76203;DHT22;64985;46.364;17.008;2023-07-31T14:56:49;29.30;55.10
76203;DHT22;64985;46.364;17.008;2023-07-31T14:59:51;29.30;53.90
76203;DHT22;64985;46.364;17.008;2023-07-31T15:02:54;29.50;55.40
76203;DHT22;64985;46.364;17.008;2023-07-31T15:05:56;29.10;59.10
76203;DHT22;64985;46.364;17.008;2023-07-31T15:08:58;28.40;61.00
76203;DHT22;64985;46.364;17.008;2023-07-31T15:12:00;27.50;62.70
76203;DHT22;64985;46.364;17.008;2023-07-31T15:15:03;27.30;62.90
76203;DHT22;64985;46.364;17.008;2023-07-31T15:18:05;27.50;64.10
76203;DHT22;64985;46.364;17.008;2023-07-31T15:21:07;27.60;62.20
76203;DHT22;64985;46.364;17.008;2023-07-31T15:24:11;28.00;58.60
76203;DHT22;64985;46.364;17.008;2023-07-31T15:27:13;28.10;62.90
76203;DHT22;64985;46.364;17.008;2023-07-31T15:30:15;28.10;59.80
76203;DHT22;64985;46.364;17.008;2023-07-31T15:33:17;28.20;60.50
76203;DHT22;64985;46.364;17.008;2023-07-31T15:36:19;27.90;62.40
76203;DHT22;64985;46.364;17.008;2023-07-31T15:39:21;28.00;57.90
76203;DHT22;64985;46.364;17.008;2023-07-31T15:42:23;27.90;58.80
76203;DHT22;64985;46.364;17.008;2023-07-31T15:45:25;28.20;60.40
76203;DHT22;64985;46.364;17.008;2023-07-31T15:48:27;28.30;57.00
76203;DHT22;64985;46.364;17.008;2023-07-31T15:51:29;28.30;59.10
76203;DHT22;64985;46.364;17.008;2023-07-31T15:54:32;28.20;61.00
76203;DHT22;64985;46.364;17.008;2023-07-31T15:57:34;28.20;59.90
76203;DHT22;64985;46.364;17.008;2023-07-31T16:00:36;27.90;57.70
76203;DHT22;64985;46.364;17.008;2023-07-31T16:03:38;27.90;60.40
76203;DHT22;64985;46.364;17.008;2023-07-31T16:06:41;27.90;59.10
76203;DHT22;64985;46.364;17.008;2023-07-31T16:09:43;27.50;61.10
76203;DHT22;64985;46.364;17.008;2023-07-31T16:12:45;27.30;63.20
76203;DHT22;64985;46.364;17.008;2023-07-31T16:15:48;27.10;61.70
76203;DHT22;64985;46.364;17.008;2023-07-31T16:18:50;27.00;63.30
76203;DHT22;64985;46.364;17.008;2023-07-31T16:21:53;26.90;63.20
76203;DHT22;64985;46.364;17.008;2023-07-31T16:24:55;26.80;64.20
76203;DHT22;64985;46.364;17.008;2023-07-31T16:27:57;26.70;64.40
76203;DHT22;64985;46.364;17.008;2023-07-31T16:31:00;26.60;66.30
76203;DHT22;64985;46.364;17.008;2023-07-31T16:34:02;26.50;65.20
76203;DHT22;64985;46.364;17.008;2023-07-31T16:37:04;26.60;65.10
76203;DHT22;64985;46.364;17.008;2023-07-31T16:40:07;26.60;65.10
76203;DHT22;64985;46.364;17.008;2023-07-31T16:43:09;26.50;65.40
76203;DHT22;64985;46.364;17.008;2023-07-31T16:46:12;26.10;66.40
76203;DHT22;64985;46.364;17.008;2023-07-31T16:49:14;26.00;67.90
76203;DHT22;64985;46.364;17.008;2023-07-31T16:52:17;26.00;67.00
76203;DHT22;64985;46.364;17.008;2023-07-31T16:55:19;26.00;66.70
76203;DHT22;64985;46.364;17.008;2023-07-31T16:58:22;26.00;68.20
76203;DHT22;64985;46.364;17.008;2023-07-31T17:01:24;25.80;68.90
76203;DHT22;64985;46.364;17.008;2023-07-31T17:04:32;25.70;71.00
76203;DHT22;64985;46.364;17.008;2023-07-31T17:07:34;25.60;70.30
76203;DHT22;64985;46.364;17.008;2023-07-31T17:10:36;25.50;70.20
76203;DHT22;64985;46.364;17.008;2023-07-31T17:13:38;25.50;69.90
76203;DHT22;64985;46.364;17.008;2023-07-31T17:16:41;25.30;72.60
76203;DHT22;64985;46.364;17.008;2023-07-31T17:19:43;25.10;73.50
76203;DHT22;64985;46.364;17.008;2023-07-31T17:22:45;25.00;75.60
76203;DHT22;64985;46.364;17.008;2023-07-31T17:25:50;24.90;77.30
76203;DHT22;64985;46.364;17.008;2023-07-31T17:28:52;24.70;78.50
76203;DHT22;64985;46.364;17.008;2023-07-31T17:31:54;24.60;82.80
76203;DHT22;64985;46.364;17.008;2023-07-31T17:34:57;24.50;84.30
76203;DHT22;64985;46.364;17.008;2023-07-31T17:37:59;24.30;90.10
76203;DHT22;64985;46.364;17.008;2023-07-31T17:41:02;24.10;93.30
76203;DHT22;64985;46.364;17.008;2023-07-31T17:44:04;23.90;94.30
76203;DHT22;64985;46.364;17.008;2023-07-31T17:47:07;23.50;98.40
76203;DHT22;64985;46.364;17.008;2023-07-31T17:50:10;23.10;99.90
76203;DHT22;64985;46.364;17.008;2023-07-31T17:53:12;22.90;99.90
76203;DHT22;64985;46.364;17.008;2023-07-31T17:56:14;22.70;99.90
76203;DHT22;64985;46.364;17.008;2023-07-31T17:59:17;22.50;99.90
76203;DHT22;64985;46.364;17.008;2023-07-31T18:02:20;22.30;99.90
76203;DHT22;64985;46.364;17.008;2023-07-31T18:05:23;22.10;99.90
76203;DHT22;64985;46.364;17.008;2023-07-31T18:08:25;21.70;99.90
76203;DHT22;64985;46.364;17.008;2023-07-31T18:11:28;21.40;99.90
76203;DHT22;64985;46.364;17.008;2023-07-31T18:14:32;21.10;99.90
76203;DHT22;64985;46.364;17.008;2023-07-31T18:17:36;20.90;99.90
76203;DHT22;64985;46.364;17.008;2023-07-31T18:20:39;20.70;99.90
76203;DHT22;64985;46.364;17.008;2023-07-31T18:23:42;20.70;99.90
76203;DHT22;64985;46.364;17.008;2023-07-31T18:26:44;20.50;99.90
76203;DHT22;64985;46.364;17.008;2023-07-31T18:29:47;20.40;99.90
76203;DHT22;64985;46.364;17.008;2023-07-31T18:32:49;20.20;99.90
76203;DHT22;64985;46.364;17.008;2023-07-31T18:35:52;20.10;99.90
76203;DHT22;64985;46.364;17.008;2023-07-31T18:38:56;20.10;99.90
76203;DHT22;64985;46.364;17.008;2023-07-31T18:41:59;19.90;99.90
76203;DHT22;64985;46.364;17.008;2023-07-31T18:45:01;19.80;99.90
76203;DHT22;64985;46.364;17.008;2023-07-31T18:48:04;19.70;99.90
76203;DHT22;64985;46.364;17.008;2023-07-31T18:51:07;19.50;99.90
76203;DHT22;64985;46.364;17.008;2023-07-31T18:54:09;19.30;99.90
76203;DHT22;64985;46.364;17.008;2023-07-31T18:57:13;19.10;99.90
76203;DHT22;64985;46.364;17.008;2023-07-31T19:00:15;18.90;99.90
76203;DHT22;64985;46.364;17.008;2023-07-31T19:03:18;18.80;99.90
76203;DHT22;64985;46.364;17.008;2023-07-31T19:06:21;18.60;99.90
76203;DHT22;64985;46.364;17.008;2023-07-31T19:09:31;18.50;99.90